Time;durP1;ratioP1;P1;durP2;ratioP2;P2;SDS_P1;SDS_P2;PMS_P1;PMS_P2;Temp;Humidity;BMP_temperature;BMP_pressure;BME280_temperature;BME280_humidity;BME280_pressure;Samples;Min_cycle;Max_cycle;Signal;HPM_P1;HPM_P2
2021/09/14 00:00:44;;;;;;;21.08;14.45;;;14.20;99.90;;;;;;4986738;28;20042;-56
2021/09/14 00:03:10;;;;;;;18.20;13.95;;;14.20;99.90;;;;;;4977901;28;20019;-56
2021/09/14 00:05:35;;;;;;;22.33;14.50;;;14.10;99.90;;;;;;4989212;28;20473;-56
2021/09/14 00:08:01;;;;;;;21.17;14.45;;;14.10;99.90;;;;;;4988340;28;20481;-55
2021/09/14 00:10:26;;;;;;;18.70;14.35;;;14.00;99.90;;;;;;4954800;28;20150;-55
2021/09/14 00:12:52;;;;;;;17.48;13.93;;;14.00;99.90;;;;;;4984951;28;20029;-56
2021/09/14 00:15:18;;;;;;;20.48;14.38;;;14.00;99.90;;;;;;4985112;28;20037;-58
2021/09/14 00:17:43;;;;;;;22.95;15.18;;;13.90;99.90;;;;;;4987644;28;20026;-58
2021/09/14 00:20:09;;;;;;;20.08;15.30;;;13.90;99.90;;;;;;4988238;28;20084;-58
2021/09/14 00:22:35;;;;;;;20.30;14.05;;;13.90;99.90;;;;;;4987066;28;20034;-55
2021/09/14 00:25:01;;;;;;;18.30;14.25;;;13.90;99.90;;;;;;4986619;28;20035;-56
2021/09/14 00:27:26;;;;;;;18.67;14.65;;;13.90;99.90;;;;;;4988602;28;20025;-54
2021/09/14 00:29:52;;;;;;;21.98;15.40;;;13.90;99.90;;;;;;4988681;28;20022;-57
2021/09/14 00:32:17;;;;;;;22.95;15.52;;;13.90;99.90;;;;;;4988837;28;20022;-56
2021/09/14 00:34:43;;;;;;;16.65;13.65;;;13.80;99.90;;;;;;4989031;28;20106;-55
2021/09/14 00:37:09;;;;;;;20.10;14.65;;;13.80;99.90;;;;;;4988723;28;20105;-54
2021/09/14 00:39:35;;;;;;;24.83;15.75;;;13.80;99.90;;;;;;4989004;28;20027;-56
2021/09/14 00:42:00;;;;;;;17.33;14.77;;;13.80;99.90;;;;;;4987188;28;20027;-56
2021/09/14 00:44:26;;;;;;;22.58;15.30;;;13.80;99.90;;;;;;4988728;28;20088;-57
2021/09/14 00:46:51;;;;;;;20.27;13.93;;;13.80;99.90;;;;;;4983584;28;20039;-56
2021/09/14 00:49:18;;;;;;;24.27;15.68;;;13.80;99.90;;;;;;4989004;28;20030;-57
2021/09/14 00:51:43;;;;;;;20.25;14.90;;;13.80;99.90;;;;;;4985734;28;20037;-55
2021/09/14 00:54:13;;;;;;;17.88;14.23;;;13.80;99.90;;;;;;4989742;28;20022;-57
2021/09/14 00:56:40;;;;;;;19.67;14.07;;;13.80;99.90;;;;;;4989007;28;20038;-57
2021/09/14 00:59:06;;;;;;;19.40;15.02;;;13.80;99.90;;;;;;4987987;28;20397;-59
2021/09/14 01:01:31;;;;;;;19.48;13.35;;;13.80;99.90;;;;;;4984665;28;20034;-57
2021/09/14 01:03:57;;;;;;;18.65;13.80;;;13.80;99.90;;;;;;4988065;28;20456;-56
2021/09/14 01:06:23;;;;;;;19.33;14.73;;;13.80;99.90;;;;;;4985091;28;20098;-57
2021/09/14 01:08:50;;;;;;;17.40;12.88;;;13.80;99.90;;;;;;4989892;28;20073;-56
2021/09/14 01:11:16;;;;;;;16.95;12.77;;;13.90;99.90;;;;;;4990212;28;20040;-57
2021/09/14 01:13:42;;;;;;;19.88;13.75;;;13.80;99.90;;;;;;4990512;28;20462;-56
2021/09/14 01:16:11;;;;;;;19.92;13.88;;;13.90;99.90;;;;;;4990286;28;20170;-56
2021/09/14 01:18:37;;;;;;;18.05;13.55;;;13.90;99.90;;;;;;4988379;28;20031;-58
2021/09/14 01:21:03;;;;;;;22.58;14.48;;;13.90;99.90;;;;;;4989584;28;20025;-58
2021/09/14 01:23:29;;;;;;;16.10;13.57;;;13.80;99.90;;;;;;4993519;28;20022;-58
2021/09/14 01:25:55;;;;;;;21.48;13.23;;;13.90;99.90;;;;;;4991395;28;20124;-57
2021/09/14 01:28:20;;;;;;;19.75;13.73;;;13.80;99.90;;;;;;4992564;28;20508;-58
2021/09/14 01:30:47;;;;;;;16.25;12.32;;;13.80;99.90;;;;;;4994419;28;20030;-58
2021/09/14 01:33:15;;;;;;;15.98;13.20;;;13.80;99.90;;;;;;4993405;28;20026;-56
2021/09/14 01:35:42;;;;;;;20.88;13.30;;;13.80;99.90;;;;;;4993726;28;20022;-56
2021/09/14 01:38:07;;;;;;;19.25;13.43;;;13.90;99.90;;;;;;4992646;28;20112;-58
2021/09/14 01:40:33;;;;;;;18.25;12.80;;;13.90;99.90;;;;;;4991654;28;20058;-57
2021/09/14 01:42:59;;;;;;;16.70;13.23;;;13.90;99.90;;;;;;4991397;28;20049;-58
2021/09/14 01:45:25;;;;;;;17.92;13.05;;;13.90;99.90;;;;;;4992967;28;20030;-57
2021/09/14 01:47:50;;;;;;;18.23;13.95;;;13.90;99.90;;;;;;4992162;28;20106;-58
2021/09/14 01:50:16;;;;;;;16.42;13.10;;;13.90;99.90;;;;;;4993136;28;20026;-57
2021/09/14 01:52:44;;;;;;;19.30;13.43;;;13.90;99.90;;;;;;4993489;28;20018;-58
2021/09/14 01:55:11;;;;;;;18.00;12.85;;;13.90;99.90;;;;;;4993395;28;20026;-54
2021/09/14 01:57:40;;;;;;;19.27;13.43;;;13.90;99.90;;;;;;4992902;28;20034;-58
2021/09/14 02:00:18;;;;;;;15.30;12.23;;;13.90;99.90;;;;;;4992639;28;20424;-57
2021/09/14 02:05:35;;;;;;;18.85;12.98;;;13.80;99.90;;;;;;4993202;28;20081;-58
2021/09/14 02:43:30;;;;;;;15.48;13.40;;;13.30;99.90;;;;;;4991642;28;19918;-56
2021/09/14 02:59:32;;;;;;;20.80;14.98;;;13.20;99.90;;;;;;4992375;28;20073;-54
2021/09/14 03:01:57;;;;;;;22.83;15.02;;;13.20;99.90;;;;;;4992049;28;20018;-54
2021/09/14 03:04:23;;;;;;;15.15;12.52;;;13.20;99.90;;;;;;4991247;28;20038;-58
2021/09/14 03:06:48;;;;;;;18.90;12.75;;;13.20;99.90;;;;;;4991814;28;20034;-54
2021/09/14 03:09:14;;;;;;;17.13;13.65;;;13.20;99.90;;;;;;4991427;28;20026;-57
2021/09/14 03:11:39;;;;;;;17.88;13.13;;;13.20;99.90;;;;;;4989858;28;20034;-55
2021/09/14 03:14:05;;;;;;;16.92;13.85;;;13.10;99.90;;;;;;4992129;28;20030;-56
2021/09/14 03:16:30;;;;;;;17.50;13.10;;;13.20;99.90;;;;;;4990971;28;20034;-57
2021/09/14 03:18:56;;;;;;;21.02;12.88;;;13.10;99.90;;;;;;4990931;28;20034;-57
2021/09/14 03:21:22;;;;;;;21.13;14.25;;;13.10;99.90;;;;;;4991746;28;20027;-57
2021/09/14 03:23:47;;;;;;;17.88;13.43;;;13.10;99.90;;;;;;4991043;28;20080;-54
2021/09/14 03:26:13;;;;;;;18.73;13.90;;;13.10;99.90;;;;;;4991496;28;20406;-54
2021/09/14 03:28:39;;;;;;;20.40;14.55;;;13.00;99.90;;;;;;4990113;28;20113;-56
2021/09/14 03:31:05;;;;;;;19.63;13.85;;;13.00;99.90;;;;;;4984244;28;20031;-56
2021/09/14 03:33:30;;;;;;;21.10;13.73;;;12.90;99.90;;;;;;4976746;28;20589;-54
2021/09/14 03:35:56;;;;;;;20.77;15.93;;;12.90;99.90;;;;;;4973514;28;20027;-56
2021/09/14 03:38:22;;;;;;;17.08;15.13;;;12.80;99.90;;;;;;4991167;28;20030;-57
2021/09/14 03:40:47;;;;;;;20.52;13.93;;;12.80;99.90;;;;;;4990989;28;20037;-56
2021/09/14 03:43:13;;;;;;;19.33;15.52;;;12.80;99.90;;;;;;4986422;28;20081;-57
2021/09/14 03:45:44;;;;;;;20.83;13.75;;;12.70;99.90;;;;;;4989817;28;20506;-57
2021/09/14 03:48:10;;;;;;;22.08;15.73;;;12.70;99.90;;;;;;4989884;28;20066;-56
2021/09/14 03:50:36;;;;;;;18.48;15.02;;;12.70;99.90;;;;;;4991098;28;20367;-56
2021/09/14 03:53:01;;;;;;;19.20;14.68;;;12.70;99.90;;;;;;4990735;28;20028;-56
2021/09/14 03:55:27;;;;;;;20.05;16.45;;;12.70;99.90;;;;;;4987552;28;20030;-56
2021/09/14 03:57:53;;;;;;;20.65;14.95;;;12.70;99.90;;;;;;4989994;28;20066;-57
2021/09/14 04:00:18;;;;;;;19.02;14.85;;;12.70;99.90;;;;;;4990432;28;20798;-58
2021/09/14 04:02:47;;;;;;;22.70;14.90;;;12.70;99.90;;;;;;4990774;28;20572;-56
2021/09/14 04:10:38;;;;;;;20.90;15.20;;;12.80;99.90;;;;;;4991409;28;20097;-54
2021/09/14 04:13:05;;;;;;;23.65;15.43;;;12.70;99.90;;;;;;4983132;28;20018;-57
2021/09/14 04:15:30;;;;;;;21.80;15.55;;;12.70;99.90;;;;;;4986826;28;20040;-56
2021/09/14 04:17:56;;;;;;;23.25;15.70;;;12.70;99.90;;;;;;4986902;28;20030;-57
2021/09/14 04:20:21;;;;;;;19.27;14.60;;;12.60;99.90;;;;;;4985185;28;20051;-58
2021/09/14 04:22:47;;;;;;;19.00;14.27;;;12.60;99.90;;;;;;5002529;28;20030;-54
2021/09/14 04:25:12;;;;;;;17.85;14.02;;;12.70;99.90;;;;;;4989942;28;20026;-56
2021/09/14 04:27:38;;;;;;;20.70;14.73;;;12.60;99.90;;;;;;4990416;28;20061;-56
2021/09/14 04:30:05;;;;;;;18.35;14.48;;;12.60;99.90;;;;;;4990590;28;20451;-57
2021/09/14 04:32:32;;;;;;;23.85;15.05;;;12.60;99.90;;;;;;4990331;28;20026;-57
2021/09/14 04:34:58;;;;;;;17.23;13.65;;;12.50;99.90;;;;;;4990552;28;20540;-59
2021/09/14 04:37:24;;;;;;;18.38;14.30;;;12.50;99.90;;;;;;4990455;28;20094;-54
2021/09/14 04:39:50;;;;;;;22.92;14.43;;;12.50;99.90;;;;;;4988898;28;20056;-57
2021/09/14 04:42:16;;;;;;;21.38;13.63;;;12.50;99.90;;;;;;4985499;28;20109;-54
2021/09/14 04:44:42;;;;;;;23.00;14.18;;;12.50;99.90;;;;;;4987011;28;20114;-57
2021/09/14 04:47:08;;;;;;;20.88;14.68;;;12.60;99.90;;;;;;4986808;28;20117;-59
2021/09/14 04:49:33;;;;;;;21.98;13.30;;;12.60;99.90;;;;;;4994661;28;20033;-57
2021/09/14 04:52:03;;;;;;;17.63;14.20;;;12.60;99.90;;;;;;4999290;28;20051;-56
2021/09/14 04:54:29;;;;;;;17.50;13.77;;;12.50;99.90;;;;;;4994259;28;20121;-56
2021/09/14 04:56:54;;;;;;;20.92;14.07;;;12.50;99.90;;;;;;4999949;28;20112;-57
2021/09/14 04:59:20;;;;;;;20.73;13.73;;;12.50;99.90;;;;;;4988216;28;20072;-56
2021/09/14 05:01:45;;;;;;;16.27;13.82;;;12.50;99.90;;;;;;4991956;28;20117;-57
2021/09/14 05:04:11;;;;;;;20.92;13.52;;;12.50;99.90;;;;;;4994397;28;20042;-59
2021/09/14 05:06:36;;;;;;;23.48;13.77;;;12.50;99.90;;;;;;4994450;28;20026;-59
2021/09/14 05:09:02;;;;;;;21.30;14.77;;;12.50;99.90;;;;;;4990589;28;20061;-56
2021/09/14 05:11:27;;;;;;;20.13;14.88;;;12.50;99.90;;;;;;4994313;28;20058;-55
2021/09/14 05:13:53;;;;;;;18.58;13.82;;;12.40;99.90;;;;;;4993779;28;20556;-57
2021/09/14 05:16:19;;;;;;;17.15;13.88;;;12.50;99.90;;;;;;4998545;28;20031;-59
2021/09/14 05:18:48;;;;;;;18.30;14.15;;;12.50;99.90;;;;;;4991637;28;20038;-55
2021/09/14 05:21:14;;;;;;;17.83;13.63;;;12.50;99.90;;;;;;4993965;28;20539;-57
2021/09/14 05:23:40;;;;;;;16.38;13.80;;;12.60;99.90;;;;;;4993043;28;20022;-58
2021/09/14 05:26:06;;;;;;;16.27;13.45;;;12.70;99.90;;;;;;4994673;28;20494;-56
2021/09/14 05:28:35;;;;;;;17.73;12.05;;;12.70;99.90;;;;;;4991516;28;20025;-58
2021/09/14 05:31:02;;;;;;;15.65;11.48;;;12.90;99.90;;;;;;4989029;28;20018;-57
2021/09/14 05:33:29;;;;;;;14.35;11.02;;;13.00;99.90;;;;;;4990052;28;20045;-58
2021/09/14 05:35:55;;;;;;;14.50;11.52;;;13.10;99.90;;;;;;4988507;28;20149;-56
2021/09/14 05:38:24;;;;;;;21.75;12.13;;;13.10;99.90;;;;;;4991346;28;20049;-54
2021/09/14 05:40:53;;;;;;;15.55;10.70;;;13.20;99.90;;;;;;4999147;28;20026;-55
2021/09/14 05:43:19;;;;;;;13.48;10.27;;;13.30;99.90;;;;;;4990704;28;20042;-58
2021/09/14 05:45:45;;;;;;;14.57;10.43;;;13.40;99.90;;;;;;4990015;28;20040;-58
2021/09/14 05:48:11;;;;;;;12.93;10.98;;;13.40;99.90;;;;;;4988734;28;20030;-56
2021/09/14 05:50:36;;;;;;;16.65;10.18;;;13.50;99.90;;;;;;4990221;28;20042;-53
2021/09/14 05:53:02;;;;;;;16.65;10.73;;;13.60;99.90;;;;;;4993135;28;20068;-58
2021/09/14 05:55:28;;;;;;;12.27;10.75;;;13.80;99.90;;;;;;4991318;28;20061;-57
2021/09/14 05:57:53;;;;;;;11.80;8.80;;;14.10;99.90;;;;;;4992333;28;20034;-58
2021/09/14 06:00:21;;;;;;;12.80;8.43;;;14.50;99.90;;;;;;4990468;28;20556;-58
2021/09/14 06:02:47;;;;;;;12.45;7.85;;;14.90;99.90;;;;;;4990030;28;20819;-57
2021/09/14 06:05:13;;;;;;;12.27;7.85;;;15.30;99.90;;;;;;4991445;28;20113;-58
2021/09/14 06:07:38;;;;;;;9.57;6.85;;;15.80;99.90;;;;;;4992422;28;20042;-58
2021/09/14 06:10:04;;;;;;;10.82;7.07;;;15.90;99.90;;;;;;4991317;28;20037;-59
2021/09/14 06:12:30;;;;;;;9.50;7.80;;;16.10;99.90;;;;;;4993345;28;20495;-57
2021/09/14 06:14:55;;;;;;;7.93;7.13;;;16.30;99.90;;;;;;4991619;28;20042;-58
2021/09/14 06:17:21;;;;;;;8.55;6.88;;;16.30;99.90;;;;;;4986808;28;20511;-58
2021/09/14 06:19:47;;;;;;;12.02;6.13;;;16.50;99.90;;;;;;4989445;28;20056;-57
2021/09/14 06:22:12;;;;;;;7.45;6.70;;;16.40;99.90;;;;;;4987632;28;20034;-55
2021/09/14 06:24:38;;;;;;;14.35;6.40;;;16.60;99.90;;;;;;4991577;28;20034;-53
2021/09/14 06:27:03;;;;;;;10.60;7.28;;;16.50;99.90;;;;;;5016386;28;20028;-54
2021/09/14 06:29:29;;;;;;;12.77;6.88;;;16.70;99.90;;;;;;4989038;28;20027;-56
2021/09/14 06:31:54;;;;;;;10.18;7.28;;;16.70;99.90;;;;;;4989917;28;20113;-56
2021/09/14 06:34:20;;;;;;;9.27;7.10;;;16.80;99.90;;;;;;4993485;28;20508;-57
2021/09/14 06:36:45;;;;;;;13.35;6.90;;;16.90;99.90;;;;;;4991751;28;20501;-57
2021/09/14 06:39:11;;;;;;;11.00;7.00;;;17.10;99.90;;;;;;4988786;28;20898;-55
2021/09/14 06:41:36;;;;;;;8.82;6.82;;;17.30;99.90;;;;;;4991428;28;20561;-59
2021/09/14 06:44:04;;;;;;;9.43;6.60;;;17.40;99.90;;;;;;4988759;28;20465;-55
2021/09/14 06:46:29;;;;;;;9.25;7.07;;;17.40;99.90;;;;;;4985301;28;20019;-58
2021/09/14 06:48:55;;;;;;;12.40;5.90;;;17.50;99.90;;;;;;4989896;28;20030;-58
2021/09/14 06:51:21;;;;;;;8.38;5.60;;;17.60;99.90;;;;;;4989914;28;20085;-59
2021/09/14 06:53:46;;;;;;;9.93;5.70;;;17.80;99.90;;;;;;4987805;28;20030;-59
2021/09/14 06:56:12;;;;;;;9.38;5.97;;;18.10;99.90;;;;;;4989699;28;20417;-58
2021/09/14 06:58:37;;;;;;;9.63;4.82;;;18.30;99.90;;;;;;4993830;28;20096;-57
2021/09/14 07:01:05;;;;;;;6.70;5.45;;;18.60;99.90;;;;;;4971662;28;20046;-57
2021/09/14 07:03:31;;;;;;;7.20;5.43;;;19.00;99.90;;;;;;4994591;28;20030;-58
2021/09/14 07:05:56;;;;;;;6.50;5.05;;;19.60;99.90;;;;;;4991232;28;20394;-57
2021/09/14 07:08:22;;;;;;;6.78;4.68;;;19.80;99.90;;;;;;4985687;28;20490;-55
2021/09/14 07:10:48;;;;;;;10.30;5.70;;;20.20;99.90;;;;;;4990737;28;20050;-58
2021/09/14 07:13:14;;;;;;;6.18;4.70;;;20.60;99.90;;;;;;4990049;28;20114;-58
2021/09/14 07:15:41;;;;;;;7.35;4.22;;;20.90;99.90;;;;;;4987367;28;20030;-58
2021/09/14 07:18:07;;;;;;;5.80;3.85;;;21.50;99.90;;;;;;4982901;28;20433;-58
2021/09/14 07:20:33;;;;;;;8.27;4.80;;;22.10;99.90;;;;;;4988776;28;20026;-58
2021/09/14 07:22:59;;;;;;;9.07;3.92;;;22.50;99.30;;;;;;4990890;28;20031;-59
2021/09/14 07:25:25;;;;;;;5.93;4.10;;;22.40;98.80;;;;;;4993684;28;20626;-57
2021/09/14 07:27:51;;;;;;;8.52;4.43;;;22.30;97.90;;;;;;4990283;28;20065;-57
2021/09/14 07:30:16;;;;;;;8.82;3.85;;;22.20;98.70;;;;;;4987085;28;20062;-56
2021/09/14 07:32:42;;;;;;;6.70;4.53;;;22.50;98.60;;;;;;4992309;28;20548;-58
2021/09/14 07:35:08;;;;;;;8.30;4.05;;;22.30;97.70;;;;;;4989286;28;20026;-58
2021/09/14 07:37:34;;;;;;;8.13;4.03;;;22.50;98.30;;;;;;4990997;28;20673;-57
2021/09/14 07:39:59;;;;;;;6.50;3.70;;;22.70;97.80;;;;;;4991313;28;20022;-58
2021/09/14 07:42:25;;;;;;;4.78;3.97;;;22.50;97.40;;;;;;4987115;28;20452;-59
2021/09/14 07:44:51;;;;;;;8.82;3.92;;;22.80;97.50;;;;;;4987361;28;20114;-59
2021/09/14 07:47:18;;;;;;;6.13;3.55;;;23.00;96.80;;;;;;4986601;28;20034;-59
2021/09/14 07:49:45;;;;;;;9.27;3.92;;;23.20;97.00;;;;;;4987969;28;20046;-60
2021/09/14 07:52:12;;;;;;;6.13;3.53;;;23.70;96.10;;;;;;4990686;28;20026;-58
2021/09/14 07:54:38;;;;;;;3.85;3.08;;;23.70;96.10;;;;;;4989595;28;20023;-53
2021/09/14 07:57:03;;;;;;;13.05;4.30;;;23.90;96.00;;;;;;4988720;28;20076;-58
2021/09/14 07:59:30;;;;;;;4.15;3.15;;;23.90;95.90;;;;;;4991590;28;20113;-58
2021/09/14 08:01:56;;;;;;;6.85;4.07;;;23.80;95.80;;;;;;4983227;28;20077;-58
2021/09/14 08:04:21;;;;;;;8.30;3.67;;;23.50;96.10;;;;;;4975355;28;20801;-59
2021/09/14 08:06:47;;;;;;;6.60;4.18;;;24.00;96.20;;;;;;4987706;28;20415;-60
2021/09/14 08:09:13;;;;;;;7.97;4.47;;;24.00;95.40;;;;;;4990528;28;20389;-59
2021/09/14 08:11:38;;;;;;;10.43;3.83;;;23.30;96.30;;;;;;4991388;28;20026;-59
2021/09/14 08:14:04;;;;;;;4.07;3.50;;;23.40;96.80;;;;;;4990131;28;20059;-56
2021/09/14 08:16:30;;;;;;;6.78;3.40;;;23.60;96.70;;;;;;4986879;28;20031;-60
2021/09/14 08:18:55;;;;;;;6.15;3.40;;;24.10;96.50;;;;;;4988281;28;20038;-59
2021/09/14 08:21:23;;;;;;;10.32;3.22;;;24.50;95.00;;;;;;4990710;28;20030;-59
2021/09/14 08:23:48;;;;;;;5.75;3.30;;;24.90;94.70;;;;;;4991082;28;20018;-60
2021/09/14 08:26:14;;;;;;;8.07;3.63;;;25.30;95.30;;;;;;4990454;28;20032;-59
2021/09/14 08:28:40;;;;;;;5.97;3.70;;;25.80;94.80;;;;;;4990891;28;20425;-59
2021/09/14 08:31:05;;;;;;;6.80;3.10;;;26.40;93.80;;;;;;4988277;28;20037;-56
2021/09/14 08:33:31;;;;;;;4.85;2.53;;;26.50;93.30;;;;;;4990082;28;20022;-59
2021/09/14 08:35:56;;;;;;;4.32;2.97;;;26.80;92.70;;;;;;4986310;28;20042;-60
2021/09/14 08:38:22;;;;;;;4.72;2.92;;;26.80;91.50;;;;;;4991025;28;20624;-58
2021/09/14 08:40:47;;;;;;;8.00;2.88;;;26.20;92.60;;;;;;4989088;28;20092;-58
2021/09/14 08:43:14;;;;;;;6.28;3.05;;;26.90;92.30;;;;;;4988641;28;20065;-58
2021/09/14 08:45:39;;;;;;;5.07;2.45;;;26.80;91.10;;;;;;4989303;28;20066;-58
2021/09/14 08:48:06;;;;;;;6.03;2.92;;;26.80;91.80;;;;;;4981758;28;20077;-58
2021/09/14 08:50:32;;;;;;;7.82;3.55;;;27.10;91.00;;;;;;4989044;28;20037;-59
2021/09/14 08:52:58;;;;;;;5.60;2.58;;;26.50;91.40;;;;;;4989595;28;20101;-59
2021/09/14 08:55:23;;;;;;;4.50;2.95;;;26.30;92.00;;;;;;4986487;28;20076;-58
2021/09/14 08:57:51;;;;;;;6.78;2.92;;;26.30;92.80;;;;;;4985885;28;20531;-60
2021/09/14 09:00:29;;;;;;;3.80;3.20;;;26.50;92.60;;;;;;4985099;28;20030;-59
2021/09/14 09:02:55;;;;;;;4.85;2.33;;;26.60;91.50;;;;;;4999450;28;20047;-59
2021/09/14 09:05:32;;;;;;;7.25;3.13;;;27.40;91.90;;;;;;4991674;28;20473;-60
2021/09/14 09:07:57;;;;;;;3.42;2.38;;;27.50;90.50;;;;;;4992121;28;20038;-60
2021/09/14 09:10:23;;;;;;;6.10;2.60;;;27.70;90.00;;;;;;4989926;28;20105;-59
2021/09/14 09:12:49;;;;;;;3.92;2.67;;;27.50;90.30;;;;;;4992308;28;20038;-60
2021/09/14 09:15:33;;;;;;;4.57;3.00;;;27.40;90.90;;;;;;4992443;28;20029;-55
2021/09/14 09:18:11;;;;;;;3.60;2.80;;;27.10;90.30;;;;;;4989097;28;20022;-56
2021/09/14 09:20:39;;;;;;;4.38;2.28;;;27.30;90.50;;;;;;4989435;28;20030;-58
2021/09/14 09:23:07;;;;;;;4.30;2.55;;;27.90;90.00;;;;;;4985846;28;20033;-56
2021/09/14 09:25:34;;;;;;;5.93;2.78;;;28.00;89.50;;;;;;4995009;28;20034;-58
2021/09/14 09:28:23;;;;;;;4.63;3.00;;;27.50;88.40;;;;;;4990361;28;20058;-55
2021/09/14 09:30:57;;;;;;;6.50;2.95;;;27.40;90.10;;;;;;4989287;28;20046;-57
2021/09/14 09:33:28;;;;;;;8.60;2.40;;;27.50;90.50;;;;;;4992159;28;20606;-58
2021/09/14 09:36:00;;;;;;;5.38;2.55;;;27.30;90.00;;;;;;4994270;28;20409;-57
2021/09/14 09:38:27;;;;;;;5.15;2.65;;;27.60;90.00;;;;;;4996281;28;20468;-57
2021/09/14 09:40:53;;;;;;;4.97;2.88;;;27.10;88.40;;;;;;4994953;28;20809;-58
2021/09/14 09:43:29;;;;;;;3.38;2.67;;;26.60;90.60;;;;;;4996308;28;20062;-55
2021/09/14 09:46:04;;;;;;;6.78;3.05;;;26.30;91.90;;;;;;4997585;28;20034;-57
2021/09/14 09:48:30;;;;;;;4.13;2.42;;;26.20;92.20;;;;;;4997446;28;20029;-54
2021/09/14 09:50:56;;;;;;;7.03;3.10;;;26.40;92.50;;;;;;5000971;28;20026;-57
2021/09/14 09:53:23;;;;;;;6.75;3.08;;;26.50;91.00;;;;;;5034316;28;20030;-58
2021/09/14 09:55:49;;;;;;;6.35;3.40;;;26.40;92.40;;;;;;4999750;28;20241;-57
2021/09/14 09:58:16;;;;;;;3.38;2.70;;;26.50;91.70;;;;;;4988848;28;20062;-56
2021/09/14 10:00:42;;;;;;;6.55;2.65;;;26.60;92.00;;;;;;4975755;28;20064;-55
2021/09/14 10:03:17;;;;;;;5.18;3.15;;;26.30;91.60;;;;;;4990376;28;20034;-56
2021/09/14 10:05:47;;;;;;;4.72;3.13;;;26.30;91.70;;;;;;4987305;28;20042;-57
2021/09/14 10:08:19;;;;;;;11.68;3.08;;;26.30;92.00;;;;;;4985882;28;20269;-58
2021/09/14 10:10:56;;;;;;;8.27;3.38;;;26.20;91.70;;;;;;4991290;28;20023;-56
2021/09/14 10:13:34;;;;;;;4.47;3.28;;;25.90;92.40;;;;;;4987043;28;20084;-56
2021/09/14 10:16:00;;;;;;;4.05;2.92;;;25.90;92.40;;;;;;4991276;28;20062;-56
2021/09/14 10:18:31;;;;;;;3.25;2.92;;;25.70;92.40;;;;;;4987388;28;20053;-58
2021/09/14 10:20:57;;;;;;;5.57;3.38;;;25.50;93.10;;;;;;4992102;28;20026;-56
2021/09/14 10:23:30;;;;;;;10.32;3.35;;;25.30;93.30;;;;;;4991882;28;20571;-58
2021/09/14 10:26:10;;;;;;;3.13;2.80;;;25.30;93.30;;;;;;4992018;28;20042;-56
2021/09/14 10:28:47;;;;;;;5.10;2.95;;;25.20;93.90;;;;;;4989959;28;20041;-58
2021/09/14 10:31:27;;;;;;;6.65;3.35;;;25.20;94.30;;;;;;4992478;28;20393;-57
2021/09/14 10:34:07;;;;;;;5.55;3.13;;;25.10;94.50;;;;;;4991554;28;20050;-59
2021/09/14 10:36:35;;;;;;;5.97;3.40;;;25.20;95.00;;;;;;4991325;28;20030;-56
2021/09/14 10:39:02;;;;;;;9.05;3.55;;;25.40;94.50;;;;;;4991230;28;20143;-58
2021/09/14 10:41:40;;;;;;;9.88;3.10;;;25.50;94.20;;;;;;4991836;28;20049;-57
2021/09/14 10:44:09;;;;;;;8.60;3.67;;;25.70;94.50;;;;;;4987367;28;20034;-56
2021/09/14 10:46:36;;;;;;;5.22;3.05;;;25.70;93.40;;;;;;4989163;28;20113;-57
2021/09/14 10:49:13;;;;;;;8.02;3.45;;;25.70;93.40;;;;;;4988492;28;20489;-58
2021/09/14 10:51:39;;;;;;;5.50;3.25;;;25.80;93.60;;;;;;4988484;28;20026;-56
2021/09/14 10:54:04;;;;;;;6.28;3.28;;;25.60;93.30;;;;;;4988888;28;20759;-57
2021/09/14 10:56:30;;;;;;;5.25;3.80;;;25.80;94.30;;;;;;4988599;28;20029;-54
2021/09/14 10:58:56;;;;;;;4.63;3.35;;;25.60;94.20;;;;;;4990483;28;20041;-58
2021/09/14 11:01:25;;;;;;;5.22;3.05;;;25.70;94.00;;;;;;4974956;28;20050;-57
2021/09/14 11:04:00;;;;;;;4.38;3.00;;;25.60;94.60;;;;;;4990191;28;20030;-57
2021/09/14 11:06:29;;;;;;;6.25;2.92;;;25.50;94.50;;;;;;4989887;28;20076;-55
2021/09/14 11:09:03;;;;;;;6.57;3.15;;;25.50;94.20;;;;;;4987586;28;20110;-58
2021/09/14 11:11:28;;;;;;;6.05;3.05;;;25.30;94.90;;;;;;4984806;28;20022;-59
2021/09/14 11:13:55;;;;;;;5.65;3.05;;;25.30;95.10;;;;;;4980089;28;20027;-58
2021/09/14 11:16:21;;;;;;;6.65;3.22;;;25.40;95.20;;;;;;4979432;28;20026;-56
2021/09/14 11:18:47;;;;;;;7.55;3.13;;;25.50;95.20;;;;;;4981557;28;20037;-59
2021/09/14 11:21:15;;;;;;;4.47;3.13;;;25.60;94.80;;;;;;4988294;28;20030;-58
2021/09/14 11:23:43;;;;;;;5.80;3.03;;;25.80;95.70;;;;;;4989482;28;20033;-58
2021/09/14 11:26:11;;;;;;;11.13;3.88;;;25.90;94.60;;;;;;4989237;28;20030;-59
2021/09/14 11:28:38;;;;;;;5.93;2.92;;;25.90;94.60;;;;;;4990954;28;20014;-55
2021/09/14 11:31:11;;;;;;;5.45;3.28;;;25.90;93.90;;;;;;4991331;28;20022;-58
2021/09/14 11:33:40;;;;;;;;;;;25.90;94.80;;;;;;4991382;28;20026;-59
2021/09/14 11:36:07;;;;;;;6.63;3.08;;;25.80;94.30;;;;;;4991757;28;20411;-60
2021/09/14 11:38:33;;;;;;;5.32;3.10;;;25.80;94.30;;;;;;4990718;28;20026;-59
2021/09/14 11:41:01;;;;;;;6.20;3.33;;;25.70;94.60;;;;;;4990742;28;20026;-58
2021/09/14 11:43:29;;;;;;;7.55;3.45;;;25.60;94.50;;;;;;4990012;28;20121;-58
2021/09/14 11:46:10;;;;;;;8.18;3.58;;;25.50;94.60;;;;;;4990847;28;20105;-59
2021/09/14 11:48:35;;;;;;;8.80;3.33;;;25.60;94.90;;;;;;4986984;28;20030;-58
2021/09/14 11:51:04;;;;;;;4.72;3.42;;;25.70;94.70;;;;;;4990766;28;20034;-57
2021/09/14 11:53:31;;;;;;;6.85;3.75;;;25.70;94.40;;;;;;4988984;28;20077;-58
2021/09/14 11:55:57;;;;;;;5.38;3.90;;;26.00;95.10;;;;;;4990907;28;20041;-59
2021/09/14 11:58:29;;;;;;;5.10;3.40;;;26.10;94.70;;;;;;4989751;28;20030;-57
2021/09/14 12:01:01;;;;;;;6.90;3.63;;;26.10;93.90;;;;;;4989508;28;20535;-60
2021/09/14 12:03:55;;;;;;;7.03;3.15;;;26.10;94.40;;;;;;4988980;28;20612;-58
2021/09/14 12:06:27;;;;;;;6.68;3.83;;;25.90;94.30;;;;;;4982575;28;20038;-59
2021/09/14 12:09:08;;;;;;;4.53;3.20;;;25.80;94.50;;;;;;4989744;28;20052;-57
2021/09/14 12:11:36;;;;;;;7.35;3.30;;;25.70;95.20;;;;;;4990690;28;20105;-58
2021/09/14 12:14:04;;;;;;;6.72;3.05;;;25.70;95.50;;;;;;4989536;28;20022;-59
2021/09/14 12:16:39;;;;;;;3.50;3.08;;;25.70;95.80;;;;;;4989768;28;20066;-59
2021/09/14 12:19:06;;;;;;;4.22;3.17;;;25.60;96.10;;;;;;4987629;28;20038;-59
2021/09/14 12:21:32;;;;;;;4.13;3.45;;;25.50;96.00;;;;;;4990184;28;20114;-58
2021/09/14 12:23:58;;;;;;;9.80;4.03;;;25.40;96.00;;;;;;4989671;28;20197;-57
2021/09/14 12:26:42;;;;;;;6.07;3.40;;;25.20;95.50;;;;;;4988073;28;20406;-58
2021/09/14 12:29:10;;;;;;;6.40;3.58;;;25.20;95.60;;;;;;4989638;28;20030;-59
2021/09/14 12:31:37;;;;;;;4.50;3.17;;;25.20;96.10;;;;;;4987089;28;20462;-57
2021/09/14 12:34:03;;;;;;;5.30;3.28;;;25.20;95.70;;;;;;4986462;28;20023;-57
2021/09/14 12:36:29;;;;;;;3.58;2.92;;;25.20;96.10;;;;;;4990412;28;20049;-59
2021/09/14 12:38:55;;;;;;;3.45;2.92;;;25.20;95.50;;;;;;4990324;28;20101;-58
2021/09/14 12:41:20;;;;;;;6.82;3.42;;;25.20;95.90;;;;;;4986614;28;20158;-58
2021/09/14 12:43:51;;;;;;;4.75;3.10;;;25.20;96.10;;;;;;4983777;28;20037;-57
2021/09/14 12:46:17;;;;;;;3.65;2.90;;;25.20;96.10;;;;;;4980682;28;20114;-59
2021/09/14 12:48:43;;;;;;;8.60;2.78;;;25.30;96.10;;;;;;4985100;28;20031;-54
2021/09/14 12:51:09;;;;;;;5.35;3.22;;;25.30;96.90;;;;;;4987743;28;20018;-59
2021/09/14 12:53:35;;;;;;;3.90;3.05;;;25.40;96.70;;;;;;4987006;28;20057;-58
2021/09/14 12:56:01;;;;;;;5.13;3.53;;;25.50;96.20;;;;;;4991854;28;20485;-58
2021/09/14 12:58:26;;;;;;;8.43;7.32;;;25.60;96.00;;;;;;4988318;28;20053;-60
2021/09/14 13:00:52;;;;;;;7.63;3.92;;;25.80;96.40;;;;;;4988820;28;20042;-58
2021/09/14 13:03:18;;;;;;;8.77;3.42;;;25.90;95.80;;;;;;4971826;28;20133;-58
2021/09/14 13:05:43;;;;;;;5.65;3.30;;;25.70;95.00;;;;;;4985932;28;20070;-56
2021/09/14 13:08:10;;;;;;;4.53;3.05;;;25.70;95.40;;;;;;4988163;28;20062;-56
2021/09/14 13:10:36;;;;;;;6.28;3.33;;;25.80;96.00;;;;;;4984279;28;20038;-58
2021/09/14 13:18:32;;;;;;;5.07;3.30;;;26.10;95.80;;;;;;4987979;28;20046;-58
2021/09/14 13:20:58;;;;;;;4.47;3.13;;;26.10;96.50;;;;;;4993688;28;20679;-60
2021/09/14 13:23:24;;;;;;;5.03;3.08;;;26.10;96.40;;;;;;4990184;28;20042;-57
2021/09/14 13:25:51;;;;;;;4.85;2.78;;;26.10;95.60;;;;;;4984411;28;20034;-58
2021/09/14 13:28:17;;;;;;;3.78;3.15;;;26.10;96.20;;;;;;4993197;28;20028;-58
2021/09/14 13:30:43;;;;;;;7.10;3.33;;;26.10;96.50;;;;;;4992339;28;20023;-58
2021/09/14 13:33:08;;;;;;;6.60;4.55;;;26.10;96.20;;;;;;4993087;28;20050;-58
2021/09/14 13:35:34;;;;;;;5.45;4.00;;;26.10;96.00;;;;;;4989716;28;20080;-59
2021/09/14 13:37:59;;;;;;;3.97;3.05;;;26.10;96.30;;;;;;4993132;28;20036;-57
2021/09/14 13:40:25;;;;;;;8.23;3.28;;;25.90;96.30;;;;;;4989572;28;20026;-56